Impacts TAF Board INFO
FOR SITUATIONAL AWARENESS. NOT TO BE USED FOR FLIGHT PLANNING PURPOSES.
IDs:

KANB - Anniston Metro, AL, US

Issued at 1727 UTC 17 Jul 2018
Updated at 1935 UTC 17 Jul 2018
Potential Impact None Slight Moderate High
Time1853Z 17/20Z 17/21Z 17/22Z 17/23Z 18/00Z 18/01Z 18/02Z 18/03Z 18/04Z 18/05Z 18/06Z 18/07Z 18/08Z>>
Type OBS PRVL PRVL PRVL PRVL PRVL PRVL PRVL PRVL PRVL PRVL PRVL PRVL PRVL
VIS 10 >6 >6 >6 >6 >6 >6 >6 >6 >6 >6 >6 >6 >6
CIG -- -- -- -- -- -- -- -- -- -- -- -- -- --
Cover CLR SCT SCT SCT SCT SCT FEW FEW FEW FEW FEW FEW FEW FEW
FltCat VFR VFR VFR VFR VFR VFR VFR VFR VFR VFR VFR VFR VFR VFR
WX -- -- -- -- -- -- -- -- -- -- -- -- -- --
WDir 230 250 250 250 250 250 310 310 310 310 310 310 310 310
WSpd 7 5 5 5 5 5 3 3 3 3 3 3 3 3
WGst -- -- -- -- -- -- -- -- -- -- -- -- -- --

Raw TAF
KANB 171727Z 1718/1818 25005KT P6SM SCT025
  FM180100 31003KT P6SM FEW050


Raw METAR
KANB 171853Z AUTO 23007KT 10SM CLR 32/23 A3000 RMK AO2 SLP147 T03170233
KANB 171753Z AUTO 23006KT 10SM FEW024 31/24 A3002 RMK AO2 SLP155 T03060239 10306 20239 58009
KANB 171653Z AUTO 23007KT 10SM CLR 29/24 A3004 RMK AO2 SLP161 T02940244
KANB 171635Z AUTO 24007KT 10SM SCT019 29/24 A3005 RMK AO2 T02890239

METAR Board
Radar Display
Forecast Discussion

FOR SITUATIONAL AWARENESS. NOT TO BE USED FOR FLIGHT PLANNING PURPOSES.